Terminal Aerodrome Forecast
Issued by NWS

Home | Current Version | Previous Version | Text Only | Print | Product List | Glossary On
Versions: 1 2 3 4 5 6 7 8 9 10 11 12 13 14 15 16
554
FTUS44 KLZK 292338
TAFBPK
TAF
KBPK 292338Z 3000/3024 11009KT 4SM -TSRA BR BKN005CB OVC025
      TEMPO 3000/3004 2SM -TSRA BR BKN002 OVC008CB
     FM300400 12007KT 4SM TSRA BR BKN007CB OVC025
     FM300800 15006KT 2SM TSRA BR BKN005CB OVC025
     FM301500 17010KT 6SM BR VCSH BKN008 OVC015=

USA.gov is the U.S. government's official web portal to all federal, state and local government web resources and services.